sensor_id;sensor_type;location;lat;lon;timestamp;pressure;altitude;pressure_sealevel;temperature;humidity
66668;BME280;57205;51.438;-2.006;2023-06-10T00:00:36;100633.84;;;15.65;100.00
66668;BME280;57205;51.438;-2.006;2023-06-10T00:03:01;100637.94;;;15.62;100.00
66668;BME280;57205;51.438;-2.006;2023-06-10T00:05:27;100645.81;;;15.59;100.00
66668;BME280;57205;51.438;-2.006;2023-06-10T00:07:55;100640.72;;;15.57;100.00
66668;BME280;57205;51.438;-2.006;2023-06-10T00:10:21;100637.81;;;15.54;100.00
66668;BME280;57205;51.438;-2.006;2023-06-10T00:12:47;100637.63;;;15.50;100.00
66668;BME280;57205;51.438;-2.006;2023-06-10T00:15:13;100639.09;;;15.43;100.00
66668;BME280;57205;51.438;-2.006;2023-06-10T00:17:39;100628.69;;;15.36;100.00
66668;BME280;57205;51.438;-2.006;2023-06-10T00:20:08;100627.44;;;15.29;100.00
66668;BME280;57205;51.438;-2.006;2023-06-10T00:22:36;100635.34;;;15.25;100.00
66668;BME280;57205;51.438;-2.006;2023-06-10T00:25:05;100630.22;;;15.24;100.00
66668;BME280;57205;51.438;-2.006;2023-06-10T00:27:31;100627.50;;;15.24;100.00
66668;BME280;57205;51.438;-2.006;2023-06-10T00:30:02;100626.50;;;15.20;100.00
66668;BME280;57205;51.438;-2.006;2023-06-10T00:32:30;100624.78;;;15.10;100.00
66668;BME280;57205;51.438;-2.006;2023-06-10T00:34:56;100631.63;;;15.03;100.00
66668;BME280;57205;51.438;-2.006;2023-06-10T00:37:21;100629.59;;;14.95;100.00
66668;BME280;57205;51.438;-2.006;2023-06-10T00:39:47;100631.88;;;14.88;100.00
66668;BME280;57205;51.438;-2.006;2023-06-10T00:42:12;100635.28;;;14.75;100.00
66668;BME280;57205;51.438;-2.006;2023-06-10T00:44:38;100635.94;;;14.66;100.00
66668;BME280;57205;51.438;-2.006;2023-06-10T00:47:04;100630.63;;;14.61;100.00
66668;BME280;57205;51.438;-2.006;2023-06-10T00:49:30;100630.69;;;14.56;100.00
66668;BME280;57205;51.438;-2.006;2023-06-10T00:51:55;100625.13;;;14.48;100.00
66668;BME280;57205;51.438;-2.006;2023-06-10T00:54:21;100634.63;;;14.45;100.00
66668;BME280;57205;51.438;-2.006;2023-06-10T00:56:47;100623.88;;;14.40;100.00
66668;BME280;57205;51.438;-2.006;2023-06-10T00:59:13;100633.69;;;14.31;100.00
66668;BME280;57205;51.438;-2.006;2023-06-10T01:01:42;100637.28;;;14.27;100.00
66668;BME280;57205;51.438;-2.006;2023-06-10T01:04:08;100628.91;;;14.23;100.00
66668;BME280;57205;51.438;-2.006;2023-06-10T01:07:05;100636.03;;;14.14;100.00
66668;BME280;57205;51.438;-2.006;2023-06-10T01:09:46;100628.00;;;14.09;100.00
66668;BME280;57205;51.438;-2.006;2023-06-10T01:12:41;100627.50;;;14.07;100.00
66668;BME280;57205;51.438;-2.006;2023-06-10T01:15:15;100621.09;;;14.03;100.00
66668;BME280;57205;51.438;-2.006;2023-06-10T01:17:55;100632.50;;;13.95;100.00
66668;BME280;57205;51.438;-2.006;2023-06-10T01:20:20;100627.66;;;13.92;100.00
66668;BME280;57205;51.438;-2.006;2023-06-10T01:22:46;100619.59;;;13.92;100.00
66668;BME280;57205;51.438;-2.006;2023-06-10T01:25:13;100633.03;;;13.92;100.00
66668;BME280;57205;51.438;-2.006;2023-06-10T01:27:40;100626.06;;;13.91;100.00
66668;BME280;57205;51.438;-2.006;2023-06-10T01:30:18;100626.84;;;13.92;100.00
66668;BME280;57205;51.438;-2.006;2023-06-10T01:32:50;100627.16;;;13.90;100.00
66668;BME280;57205;51.438;-2.006;2023-06-10T01:35:16;100624.47;;;13.90;100.00
66668;BME280;57205;51.438;-2.006;2023-06-10T01:37:45;100624.16;;;13.92;100.00
66668;BME280;57205;51.438;-2.006;2023-06-10T01:40:12;100623.84;;;13.98;100.00
66668;BME280;57205;51.438;-2.006;2023-06-10T01:42:38;100623.78;;;14.03;100.00
66668;BME280;57205;51.438;-2.006;2023-06-10T01:45:04;100624.00;;;14.07;100.00
66668;BME280;57205;51.438;-2.006;2023-06-10T01:47:29;100626.66;;;14.12;100.00
66668;BME280;57205;51.438;-2.006;2023-06-10T01:49:55;100627.50;;;14.07;100.00
66668;BME280;57205;51.438;-2.006;2023-06-10T01:52:20;100624.81;;;14.07;100.00
66668;BME280;57205;51.438;-2.006;2023-06-10T01:54:45;100626.44;;;14.08;100.00
66668;BME280;57205;51.438;-2.006;2023-06-10T01:57:11;100624.75;;;14.12;100.00
66668;BME280;57205;51.438;-2.006;2023-06-10T01:59:36;100625.84;;;14.11;100.00
66668;BME280;57205;51.438;-2.006;2023-06-10T02:02:04;100633.03;;;14.16;100.00
66668;BME280;57205;51.438;-2.006;2023-06-10T02:04:30;100625.78;;;14.16;100.00
66668;BME280;57205;51.438;-2.006;2023-06-10T02:06:55;100634.06;;;14.20;100.00
66668;BME280;57205;51.438;-2.006;2023-06-10T02:09:22;100633.28;;;14.19;100.00
66668;BME280;57205;51.438;-2.006;2023-06-10T02:11:48;100626.06;;;14.15;100.00
66668;BME280;57205;51.438;-2.006;2023-06-10T02:14:14;100633.03;;;14.16;100.00
66668;BME280;57205;51.438;-2.006;2023-06-10T02:16:40;100625.78;;;14.16;100.00
66668;BME280;57205;51.438;-2.006;2023-06-10T02:19:05;100627.44;;;14.12;100.00
66668;BME280;57205;51.438;-2.006;2023-06-10T02:21:32;100627.94;;;14.14;100.00
66668;BME280;57205;51.438;-2.006;2023-06-10T02:23:57;100620.91;;;14.18;100.00
66668;BME280;57205;51.438;-2.006;2023-06-10T02:26:23;100632.19;;;14.20;100.00
66668;BME280;57205;51.438;-2.006;2023-06-10T02:28:51;100621.94;;;14.22;100.00
66668;BME280;57205;51.438;-2.006;2023-06-10T02:31:17;100636.22;;;14.23;100.00
66668;BME280;57205;51.438;-2.006;2023-06-10T02:33:45;100636.50;;;14.21;100.00
66668;BME280;57205;51.438;-2.006;2023-06-10T02:36:10;100645.84;;;14.29;100.00
66668;BME280;57205;51.438;-2.006;2023-06-10T02:38:40;100637.75;;;14.29;100.00
66668;BME280;57205;51.438;-2.006;2023-06-10T02:41:06;100640.97;;;14.31;100.00
66668;BME280;57205;51.438;-2.006;2023-06-10T02:43:31;100639.59;;;14.33;100.00
66668;BME280;57205;51.438;-2.006;2023-06-10T02:45:57;100638.78;;;14.33;100.00
66668;BME280;57205;51.438;-2.006;2023-06-10T02:48:26;100640.13;;;14.35;100.00
66668;BME280;57205;51.438;-2.006;2023-06-10T02:50:52;100647.16;;;14.31;100.00
66668;BME280;57205;51.438;-2.006;2023-06-10T02:53:17;100648.25;;;14.30;100.00
66668;BME280;57205;51.438;-2.006;2023-06-10T02:55:43;100647.19;;;14.26;100.00
66668;BME280;57205;51.438;-2.006;2023-06-10T02:58:09;100645.88;;;14.24;100.00
66668;BME280;57205;51.438;-2.006;2023-06-10T03:00:35;100645.56;;;14.25;100.00
66668;BME280;57205;51.438;-2.006;2023-06-10T03:03:02;100643.69;;;14.26;100.00
66668;BME280;57205;51.438;-2.006;2023-06-10T03:05:29;100645.06;;;14.23;100.00
66668;BME280;57205;51.438;-2.006;2023-06-10T03:07:55;100640.25;;;14.20;100.00
66668;BME280;57205;51.438;-2.006;2023-06-10T03:10:20;100644.84;;;14.20;100.00
66668;BME280;57205;51.438;-2.006;2023-06-10T03:12:46;100640.19;;;14.25;100.00
66668;BME280;57205;51.438;-2.006;2023-06-10T03:15:11;100632.13;;;14.25;100.00
66668;BME280;57205;51.438;-2.006;2023-06-10T03:17:36;100637.50;;;14.25;100.00
66668;BME280;57205;51.438;-2.006;2023-06-10T03:20:02;100635.91;;;14.24;100.00
66668;BME280;57205;51.438;-2.006;2023-06-10T03:22:30;100634.00;;;14.30;100.00
66668;BME280;57205;51.438;-2.006;2023-06-10T03:24:56;100625.66;;;14.26;100.00
66668;BME280;57205;51.438;-2.006;2023-06-10T03:27:22;100642.38;;;14.28;100.00
66668;BME280;57205;51.438;-2.006;2023-06-10T03:29:48;100641.28;;;14.24;100.00
66668;BME280;57205;51.438;-2.006;2023-06-10T03:32:13;100636.72;;;14.25;100.00
66668;BME280;57205;51.438;-2.006;2023-06-10T03:34:40;100650.19;;;14.25;100.00
66668;BME280;57205;51.438;-2.006;2023-06-10T03:37:05;100637.28;;;14.22;100.00
66668;BME280;57205;51.438;-2.006;2023-06-10T03:39:32;100637.06;;;14.18;100.00
66668;BME280;57205;51.438;-2.006;2023-06-10T03:41:57;100640.84;;;14.17;100.00
66668;BME280;57205;51.438;-2.006;2023-06-10T03:44:24;100639.75;;;14.18;100.00
66668;BME280;57205;51.438;-2.006;2023-06-10T03:46:51;100634.88;;;14.20;100.00
66668;BME280;57205;51.438;-2.006;2023-06-10T03:49:17;100634.06;;;14.20;100.00
66668;BME280;57205;51.438;-2.006;2023-06-10T03:51:42;100638.69;;;14.19;100.00
66668;BME280;57205;51.438;-2.006;2023-06-10T03:54:08;100631.22;;;14.11;100.00
66668;BME280;57205;51.438;-2.006;2023-06-10T03:56:33;100636.25;;;14.18;100.00
66668;BME280;57205;51.438;-2.006;2023-06-10T03:58:59;100638.94;;;14.18;100.00
66668;BME280;57205;51.438;-2.006;2023-06-10T04:01:25;100642.44;;;14.18;100.00
66668;BME280;57205;51.438;-2.006;2023-06-10T04:03:50;100638.69;;;14.19;100.00
66668;BME280;57205;51.438;-2.006;2023-06-10T04:06:19;100623.59;;;14.18;100.00
66668;BME280;57205;51.438;-2.006;2023-06-10T04:08:44;100624.13;;;14.20;100.00
66668;BME280;57205;51.438;-2.006;2023-06-10T04:11:10;100629.50;;;14.20;100.00
66668;BME280;57205;51.438;-2.006;2023-06-10T04:13:35;100629.56;;;14.15;100.00
66668;BME280;57205;51.438;-2.006;2023-06-10T04:16:01;100626.34;;;14.13;100.00
66668;BME280;57205;51.438;-2.006;2023-06-10T04:18:28;100630.13;;;14.12;100.00
66668;BME280;57205;51.438;-2.006;2023-06-10T04:20:53;100629.88;;;14.14;100.00
66668;BME280;57205;51.438;-2.006;2023-06-10T04:23:19;100644.09;;;14.14;100.00
66668;BME280;57205;51.438;-2.006;2023-06-10T04:25:44;100631.44;;;14.15;100.00
66668;BME280;57205;51.438;-2.006;2023-06-10T04:28:10;100643.56;;;14.12;100.00
66668;BME280;57205;51.438;-2.006;2023-06-10T04:30:35;100640.88;;;14.12;100.00
66668;BME280;57205;51.438;-2.006;2023-06-10T04:33:00;100642.50;;;14.13;100.00
66668;BME280;57205;51.438;-2.006;2023-06-10T04:35:26;100636.31;;;14.13;100.00
66668;BME280;57205;51.438;-2.006;2023-06-10T04:37:53;100638.72;;;14.14;100.00
66668;BME280;57205;51.438;-2.006;2023-06-10T04:40:19;100644.06;;;14.19;100.00
66668;BME280;57205;51.438;-2.006;2023-06-10T04:42:45;100651.03;;;14.20;100.00
66668;BME280;57205;51.438;-2.006;2023-06-10T04:45:11;100636.50;;;14.21;100.00
66668;BME280;57205;51.438;-2.006;2023-06-10T04:47:36;100646.56;;;14.11;100.00
66668;BME280;57205;51.438;-2.006;2023-06-10T04:50:03;100646.28;;;14.12;100.00
66668;BME280;57205;51.438;-2.006;2023-06-10T04:52:29;100636.91;;;14.10;100.00
66668;BME280;57205;51.438;-2.006;2023-06-10T04:54:54;100652.53;;;14.08;100.00
66668;BME280;57205;51.438;-2.006;2023-06-10T04:57:20;100651.19;;;14.05;100.00
66668;BME280;57205;51.438;-2.006;2023-06-10T04:59:47;100643.94;;;14.06;100.00
66668;BME280;57205;51.438;-2.006;2023-06-10T05:02:12;100648.50;;;14.05;100.00
66668;BME280;57205;51.438;-2.006;2023-06-10T05:04:38;100641.81;;;14.03;100.00
66668;BME280;57205;51.438;-2.006;2023-06-10T05:07:04;100644.16;;;14.09;100.00
66668;BME280;57205;51.438;-2.006;2023-06-10T05:09:31;100647.16;;;14.08;100.00
66668;BME280;57205;51.438;-2.006;2023-06-10T05:11:58;100646.09;;;14.04;100.00
66668;BME280;57205;51.438;-2.006;2023-06-10T05:14:23;100645.75;;;14.10;100.00
66668;BME280;57205;51.438;-2.006;2023-06-10T05:16:49;100638.41;;;14.16;100.00
66668;BME280;57205;51.438;-2.006;2023-06-10T05:19:14;100639.44;;;14.20;100.00
66668;BME280;57205;51.438;-2.006;2023-06-10T05:21:42;100633.75;;;14.26;100.00
66668;BME280;57205;51.438;-2.006;2023-06-10T05:24:08;100632.66;;;14.27;100.00
66668;BME280;57205;51.438;-2.006;2023-06-10T05:26:33;100633.13;;;14.34;100.00
66668;BME280;57205;51.438;-2.006;2023-06-10T05:29:02;100643.66;;;14.31;100.00
66668;BME280;57205;51.438;-2.006;2023-06-10T05:31:28;100634.28;;;14.28;100.00
66668;BME280;57205;51.438;-2.006;2023-06-10T05:33:53;100632.38;;;14.29;100.00
66668;BME280;57205;51.438;-2.006;2023-06-10T05:36:19;100627.25;;;14.32;100.00
66668;BME280;57205;51.438;-2.006;2023-06-10T05:38:44;100629.34;;;14.35;100.00
66668;BME280;57205;51.438;-2.006;2023-06-10T05:41:10;100628.53;;;14.35;100.00
66668;BME280;57205;51.438;-2.006;2023-06-10T05:43:35;100632.84;;;14.36;100.00
66668;BME280;57205;51.438;-2.006;2023-06-10T05:46:01;100632.41;;;14.47;100.00
66668;BME280;57205;51.438;-2.006;2023-06-10T05:48:26;100633.13;;;14.53;100.00
66668;BME280;57205;51.438;-2.006;2023-06-10T05:50:51;100633.00;;;14.63;100.00
66668;BME280;57205;51.438;-2.006;2023-06-10T05:53:17;100634.69;;;14.78;100.00
66668;BME280;57205;51.438;-2.006;2023-06-10T05:55:43;100634.84;;;15.05;100.00
66668;BME280;57205;51.438;-2.006;2023-06-10T05:58:09;100629.50;;;15.18;100.00
66668;BME280;57205;51.438;-2.006;2023-06-10T06:00:34;100627.22;;;15.44;100.00
66668;BME280;57205;51.438;-2.006;2023-06-10T06:03:00;100617.88;;;15.55;100.00
66668;BME280;57205;51.438;-2.006;2023-06-10T06:05:26;100628.28;;;15.75;100.00
66668;BME280;57205;51.438;-2.006;2023-06-10T06:07:51;100618.13;;;15.99;100.00
66668;BME280;57205;51.438;-2.006;2023-06-10T06:10:18;100618.00;;;16.04;100.00
66668;BME280;57205;51.438;-2.006;2023-06-10T06:12:44;100619.13;;;16.03;100.00
66668;BME280;57205;51.438;-2.006;2023-06-10T06:15:10;100631.81;;;16.03;100.00
66668;BME280;57205;51.438;-2.006;2023-06-10T06:17:36;100630.38;;;16.05;100.00
66668;BME280;57205;51.438;-2.006;2023-06-10T06:20:03;100631.50;;;15.91;100.00
66668;BME280;57205;51.438;-2.006;2023-06-10T06:22:28;100633.59;;;15.80;100.00
66668;BME280;57205;51.438;-2.006;2023-06-10T06:24:54;100640.88;;;15.66;100.00
66668;BME280;57205;51.438;-2.006;2023-06-10T06:27:19;100638.25;;;15.61;100.00
66668;BME280;57205;51.438;-2.006;2023-06-10T06:29:46;100639.66;;;15.72;100.00
66668;BME280;57205;51.438;-2.006;2023-06-10T06:32:11;100644.88;;;15.82;100.00
66668;BME280;57205;51.438;-2.006;2023-06-10T06:34:37;100652.09;;;15.87;100.00
66668;BME280;57205;51.438;-2.006;2023-06-10T06:37:03;100629.69;;;16.00;100.00
66668;BME280;57205;51.438;-2.006;2023-06-10T06:39:29;100634.50;;;16.03;100.00
66668;BME280;57205;51.438;-2.006;2023-06-10T06:41:55;100618.91;;;16.40;100.00
66668;BME280;57205;51.438;-2.006;2023-06-10T06:44:20;100635.59;;;16.92;100.00
66668;BME280;57205;51.438;-2.006;2023-06-10T06:46:46;100627.78;;;17.79;100.00
66668;BME280;57205;51.438;-2.006;2023-06-10T06:49:11;100619.63;;;18.48;100.00
66668;BME280;57205;51.438;-2.006;2023-06-10T06:51:38;100629.50;;;19.30;100.00
66668;BME280;57205;51.438;-2.006;2023-06-10T06:54:04;100623.84;;;20.07;100.00
66668;BME280;57205;51.438;-2.006;2023-06-10T06:56:31;100628.19;;;20.87;95.36
66668;BME280;57205;51.438;-2.006;2023-06-10T06:58:56;100636.53;;;21.56;90.63
66668;BME280;57205;51.438;-2.006;2023-06-10T07:01:23;100631.00;;;22.09;84.17
66668;BME280;57205;51.438;-2.006;2023-06-10T07:03:49;100632.25;;;21.99;83.43
66668;BME280;57205;51.438;-2.006;2023-06-10T07:06:14;100627.59;;;22.12;83.07
66668;BME280;57205;51.438;-2.006;2023-06-10T07:08:40;100626.41;;;22.49;80.99
66668;BME280;57205;51.438;-2.006;2023-06-10T07:11:06;100632.47;;;22.30;79.55
66668;BME280;57205;51.438;-2.006;2023-06-10T07:13:31;100631.31;;;22.07;79.81
66668;BME280;57205;51.438;-2.006;2023-06-10T07:15:57;100639.63;;;21.87;80.54
66668;BME280;57205;51.438;-2.006;2023-06-10T07:18:22;100636.13;;;21.78;81.44
66668;BME280;57205;51.438;-2.006;2023-06-10T07:20:48;100634.84;;;22.08;79.52
66668;BME280;57205;51.438;-2.006;2023-06-10T07:23:13;100628.16;;;22.17;79.73
66668;BME280;57205;51.438;-2.006;2023-06-10T07:25:41;100635.84;;;22.64;76.72
66668;BME280;57205;51.438;-2.006;2023-06-10T07:28:06;100622.03;;;22.96;74.77
66668;BME280;57205;51.438;-2.006;2023-06-10T07:30:32;100617.56;;;22.64;75.41
66668;BME280;57205;51.438;-2.006;2023-06-10T07:32:57;100624.22;;;22.79;75.53
66668;BME280;57205;51.438;-2.006;2023-06-10T07:35:23;100626.63;;;23.08;74.31
66668;BME280;57205;51.438;-2.006;2023-06-10T07:37:48;100635.53;;;23.33;73.23
66668;BME280;57205;51.438;-2.006;2023-06-10T07:40:14;100626.88;;;23.58;69.64
66668;BME280;57205;51.438;-2.006;2023-06-10T07:42:39;100630.19;;;23.36;70.42
66668;BME280;57205;51.438;-2.006;2023-06-10T07:45:05;100625.97;;;23.54;71.63
66668;BME280;57205;51.438;-2.006;2023-06-10T07:47:33;100633.34;;;23.81;68.27
66668;BME280;57205;51.438;-2.006;2023-06-10T07:49:58;100624.09;;;24.01;68.18
66668;BME280;57205;51.438;-2.006;2023-06-10T07:52:24;100624.63;;;24.07;66.47
66668;BME280;57205;51.438;-2.006;2023-06-10T07:54:51;100629.53;;;24.33;66.18
66668;BME280;57205;51.438;-2.006;2023-06-10T07:57:16;100617.38;;;24.80;63.15
66668;BME280;57205;51.438;-2.006;2023-06-10T07:59:42;100630.97;;;25.15;61.62
66668;BME280;57205;51.438;-2.006;2023-06-10T08:02:09;100620.81;;;24.96;62.22
66668;BME280;57205;51.438;-2.006;2023-06-10T08:04:34;100628.59;;;24.94;61.24
66668;BME280;57205;51.438;-2.006;2023-06-10T08:07:00;100625.56;;;25.38;59.69
66668;BME280;57205;51.438;-2.006;2023-06-10T08:09:26;100619.84;;;25.27;59.45
66668;BME280;57205;51.438;-2.006;2023-06-10T08:11:51;100631.59;;;25.28;59.65
66668;BME280;57205;51.438;-2.006;2023-06-10T08:14:17;100630.81;;;25.46;58.85
66668;BME280;57205;51.438;-2.006;2023-06-10T08:16:43;100616.97;;;25.58;57.95
66668;BME280;57205;51.438;-2.006;2023-06-10T08:19:08;100622.19;;;25.67;58.08
66668;BME280;57205;51.438;-2.006;2023-06-10T08:21:35;100628.28;;;26.02;57.11
66668;BME280;57205;51.438;-2.006;2023-06-10T08:24:02;100635.41;;;25.84;56.82
66668;BME280;57205;51.438;-2.006;2023-06-10T08:26:28;100621.72;;;26.07;56.66
66668;BME280;57205;51.438;-2.006;2023-06-10T08:28:53;100625.66;;;25.86;57.31
66668;BME280;57205;51.438;-2.006;2023-06-10T08:31:20;100636.44;;;25.98;57.27
66668;BME280;57205;51.438;-2.006;2023-06-10T08:33:46;100636.66;;;26.35;56.53
66668;BME280;57205;51.438;-2.006;2023-06-10T08:36:11;100634.28;;;26.60;56.00
66668;BME280;57205;51.438;-2.006;2023-06-10T08:38:37;100645.81;;;26.69;54.22
66668;BME280;57205;51.438;-2.006;2023-06-10T08:41:04;100634.63;;;26.81;53.54
66668;BME280;57205;51.438;-2.006;2023-06-10T08:43:34;100629.53;;;26.83;54.17
66668;BME280;57205;51.438;-2.006;2023-06-10T08:46:03;100633.34;;;26.75;54.25
66668;BME280;57205;51.438;-2.006;2023-06-10T08:48:30;100627.91;;;26.78;53.45
66668;BME280;57205;51.438;-2.006;2023-06-10T08:50:57;100633.03;;;26.80;53.31
66668;BME280;57205;51.438;-2.006;2023-06-10T08:53:23;100628.53;;;26.42;54.71
66668;BME280;57205;51.438;-2.006;2023-06-10T08:55:57;100619.94;;;26.18;55.79
66668;BME280;57205;51.438;-2.006;2023-06-10T08:58:24;100625.16;;;26.03;56.29
66668;BME280;57205;51.438;-2.006;2023-06-10T09:00:51;100618.19;;;26.06;56.57
66668;BME280;57205;51.438;-2.006;2023-06-10T09:03:16;100613.34;;;25.99;56.77
66668;BME280;57205;51.438;-2.006;2023-06-10T09:05:43;100622.16;;;25.86;57.11
66668;BME280;57205;51.438;-2.006;2023-06-10T09:08:09;100611.78;;;25.76;58.45
66668;BME280;57205;51.438;-2.006;2023-06-10T09:10:35;100601.66;;;26.02;57.69
66668;BME280;57205;51.438;-2.006;2023-06-10T09:13:01;100604.09;;;26.34;57.08
66668;BME280;57205;51.438;-2.006;2023-06-10T09:15:26;100598.59;;;26.60;56.12
66668;BME280;57205;51.438;-2.006;2023-06-10T09:17:53;100595.25;;;27.03;54.89
66668;BME280;57205;51.438;-2.006;2023-06-10T09:20:19;100593.59;;;26.95;54.52
66668;BME280;57205;51.438;-2.006;2023-06-10T09:22:44;100604.84;;;27.16;54.09
66668;BME280;57205;51.438;-2.006;2023-06-10T09:25:12;100598.47;;;27.09;53.29
66668;BME280;57205;51.438;-2.006;2023-06-10T09:27:51;100609.66;;;27.30;53.43
66668;BME280;57205;51.438;-2.006;2023-06-10T09:30:29;100600.56;;;27.22;53.35
66668;BME280;57205;51.438;-2.006;2023-06-10T09:32:56;100596.72;;;27.30;53.77
66668;BME280;57205;51.438;-2.006;2023-06-10T09:35:23;100592.09;;;27.34;53.65
66668;BME280;57205;51.438;-2.006;2023-06-10T09:37:51;100599.38;;;27.56;53.07
66668;BME280;57205;51.438;-2.006;2023-06-10T09:40:16;100587.66;;;27.63;52.75
66668;BME280;57205;51.438;-2.006;2023-06-10T09:42:42;100595.88;;;27.59;53.12
66668;BME280;57205;51.438;-2.006;2023-06-10T09:45:07;100595.69;;;27.42;52.93
66668;BME280;57205;51.438;-2.006;2023-06-10T09:47:33;100590.59;;;27.07;54.38
66668;BME280;57205;51.438;-2.006;2023-06-10T09:49:59;100587.84;;;27.40;54.17
66668;BME280;57205;51.438;-2.006;2023-06-10T09:52:26;100584.16;;;27.66;53.45
66668;BME280;57205;51.438;-2.006;2023-06-10T09:54:53;100587.13;;;27.90;52.65
66668;BME280;57205;51.438;-2.006;2023-06-10T09:57:20;100586.63;;;28.32;51.75
66668;BME280;57205;51.438;-2.006;2023-06-10T09:59:46;100577.84;;;28.70;51.19
66668;BME280;57205;51.438;-2.006;2023-06-10T10:02:18;100573.50;;;28.73;50.43
66668;BME280;57205;51.438;-2.006;2023-06-10T10:04:44;100562.47;;;28.73;49.82
66668;BME280;57205;51.438;-2.006;2023-06-10T10:07:11;100573.97;;;28.85;50.14
66668;BME280;57205;51.438;-2.006;2023-06-10T10:09:40;100574.81;;;29.00;48.93
66668;BME280;57205;51.438;-2.006;2023-06-10T10:12:09;100579.41;;;28.71;49.43
66668;BME280;57205;51.438;-2.006;2023-06-10T10:14:37;100566.03;;;28.70;49.95
66668;BME280;57205;51.438;-2.006;2023-06-10T10:17:10;100566.34;;;28.54;50.12
66668;BME280;57205;51.438;-2.006;2023-06-10T10:19:57;100560.13;;;28.78;50.40
66668;BME280;57205;51.438;-2.006;2023-06-10T10:22:43;100556.97;;;28.73;51.28
66668;BME280;57205;51.438;-2.006;2023-06-10T10:25:17;100563.00;;;29.10;50.39
66668;BME280;57205;51.438;-2.006;2023-06-10T10:27:57;100561.13;;;29.28;49.30
66668;BME280;57205;51.438;-2.006;2023-06-10T10:30:25;100563.09;;;29.42;48.68
66668;BME280;57205;51.438;-2.006;2023-06-10T10:33:02;100563.88;;;29.49;49.06
66668;BME280;57205;51.438;-2.006;2023-06-10T10:35:30;100564.72;;;29.89;48.20
66668;BME280;57205;51.438;-2.006;2023-06-10T10:37:58;100574.53;;;30.14;47.56
66668;BME280;57205;51.438;-2.006;2023-06-10T10:40:24;100565.09;;;29.73;48.28
66668;BME280;57205;51.438;-2.006;2023-06-10T10:42:52;100563.13;;;29.95;48.50
66668;BME280;57205;51.438;-2.006;2023-06-10T10:45:18;100558.41;;;29.95;48.14
66668;BME280;57205;51.438;-2.006;2023-06-10T10:47:45;100563.13;;;30.05;47.41
66668;BME280;57205;51.438;-2.006;2023-06-10T10:50:18;100561.97;;;29.85;48.47
66668;BME280;57205;51.438;-2.006;2023-06-10T10:52:54;100565.50;;;29.86;48.91
66668;BME280;57205;51.438;-2.006;2023-06-10T10:55:20;100560.00;;;29.86;49.04
66668;BME280;57205;51.438;-2.006;2023-06-10T10:57:57;100557.22;;;29.75;49.16
66668;BME280;57205;51.438;-2.006;2023-06-10T11:00:28;100558.41;;;29.99;49.17
66668;BME280;57205;51.438;-2.006;2023-06-10T11:02:58;100551.25;;;30.36;48.14
66668;BME280;57205;51.438;-2.006;2023-06-10T11:05:41;100557.19;;;30.10;48.44
66668;BME280;57205;51.438;-2.006;2023-06-10T11:08:09;100562.34;;;29.84;48.98
66668;BME280;57205;51.438;-2.006;2023-06-10T11:10:51;100556.81;;;29.69;49.50
66668;BME280;57205;51.438;-2.006;2023-06-10T11:13:19;100559.97;;;29.57;50.65
66668;BME280;57205;51.438;-2.006;2023-06-10T11:15:51;100552.44;;;29.30;51.28
66668;BME280;57205;51.438;-2.006;2023-06-10T11:18:23;100560.34;;;29.38;51.33
66668;BME280;57205;51.438;-2.006;2023-06-10T11:21:00;100552.84;;;29.42;51.96
66668;BME280;57205;51.438;-2.006;2023-06-10T11:34:09;100535.44;;;29.07;54.74
66668;BME280;57205;51.438;-2.006;2023-06-10T11:36:38;100537.38;;;29.03;55.50
66668;BME280;57205;51.438;-2.006;2023-06-10T11:39:06;100533.06;;;29.09;55.97
66668;BME280;57205;51.438;-2.006;2023-06-10T11:41:32;100533.47;;;29.11;55.57
66668;BME280;57205;51.438;-2.006;2023-06-10T11:44:14;100538.59;;;29.05;56.24
66668;BME280;57205;51.438;-2.006;2023-06-10T11:46:40;100546.03;;;28.94;55.77
66668;BME280;57205;51.438;-2.006;2023-06-10T11:49:08;100537.34;;;28.78;53.32
66668;BME280;57205;51.438;-2.006;2023-06-10T11:51:35;100532.16;;;28.66;54.09
66668;BME280;57205;51.438;-2.006;2023-06-10T11:54:03;100534.53;;;28.74;54.06
66668;BME280;57205;51.438;-2.006;2023-06-10T11:56:30;100536.97;;;28.94;53.62
66668;BME280;57205;51.438;-2.006;2023-06-10T11:58:56;100529.88;;;28.85;54.61
66668;BME280;57205;51.438;-2.006;2023-06-10T12:01:29;100531.44;;;28.79;54.52
66668;BME280;57205;51.438;-2.006;2023-06-10T12:04:08;100529.91;;;29.00;54.60
66668;BME280;57205;51.438;-2.006;2023-06-10T12:06:43;100531.47;;;28.97;54.57
66668;BME280;57205;51.438;-2.006;2023-06-10T12:09:14;100525.22;;;29.07;53.98
66668;BME280;57205;51.438;-2.006;2023-06-10T12:11:39;100526.84;;;29.15;54.24
66668;BME280;57205;51.438;-2.006;2023-06-10T12:14:05;100530.75;;;29.14;54.69
66668;BME280;57205;51.438;-2.006;2023-06-10T12:16:31;100533.06;;;28.98;52.48
66668;BME280;57205;51.438;-2.006;2023-06-10T12:19:04;100533.78;;;28.70;51.95
66668;BME280;57205;51.438;-2.006;2023-06-10T12:21:31;100528.25;;;28.67;52.62
66668;BME280;57205;51.438;-2.006;2023-06-10T12:24:19;100536.88;;;28.69;52.33
66668;BME280;57205;51.438;-2.006;2023-06-10T12:26:44;100530.59;;;28.65;52.98
66668;BME280;57205;51.438;-2.006;2023-06-10T12:32:03;100530.59;;;28.65;54.13
66668;BME280;57205;51.438;-2.006;2023-06-10T12:34:38;100521.13;;;28.62;54.80
66668;BME280;57205;51.438;-2.006;2023-06-10T12:37:10;100515.56;;;28.52;55.05
66668;BME280;57205;51.438;-2.006;2023-06-10T12:39:39;100521.94;;;28.63;55.33
66668;BME280;57205;51.438;-2.006;2023-06-10T12:42:05;100517.59;;;28.69;56.32
66668;BME280;57205;51.438;-2.006;2023-06-10T12:44:39;100518.84;;;28.82;57.08
66668;BME280;57205;51.438;-2.006;2023-06-10T12:47:09;100512.22;;;29.04;54.48
66668;BME280;57205;51.438;-2.006;2023-06-10T12:49:36;100505.56;;;29.12;53.32